In Rescue
 
Open Full Screen Window  High Contrast Mode
Wind Gusting 00 knots
03
June 26, 2019 10:35 PM EDT
Weather Information
Wind Direction
  220 °
Wind Speed
  03 kt (3 mph)
Wind Gust
  00 kt (0 mph)
Altimeter
30.16 in
Visibility
10 SM
Temperature
25° C
77° F
Dewpoint
18° C
64° F
Humidity
65%
1hr Rain Fall
00.00 in.
24hr Rain Fall
00.00 in.
Sky Condition
Clear
VFR

METAR KI19 270235Z AUTO 22003KT 10SM CLR 25/18 A3016 RMK AO2 T02520180

FAA Disclaimer: The data displayed is for advisory purposes only and is not to be used for flight planning or operations.